<?xml version="1.0" encoding="UTF-8" standalone="no" ?>
<gpx xmlns="http://www.topografix.com/GPX/1/1" xmlns:xsi="http://www.w3.org/2001/XMLSchema-instance" xsi:schemaLocation="http://www.topografix.com/GPX/1/1 http://www.topografix.com/GPX/1/1/gpx.xsd" version="1.1" creator="VisuGPX - https://www.visugpx.com">
  <metadata>
    <name>RANDO ROUFIGNAC DE SIGOULES</name>
    <desc><![CDATA[rando vtt 14/07/2012]]></desc>
  </metadata>
  <trk>
    <name><![CDATA[14-JUIL-12 18:55:02]]></name>
    <trkseg>
      <trkpt lat="44.78414" lon="0.44769">
        <ele>138.09</ele>
        <time>2012-07-14T06:06:34Z</time>
      </trkpt>
      <trkpt lat="44.78394" lon="0.44803">
        <ele>148.66</ele>
        <time>2012-07-14T06:17:22Z</time>
      </trkpt>
      <trkpt lat="44.78323" lon="0.44818">
        <ele>148.66</ele>
        <time>2012-07-14T06:26:38Z</time>
      </trkpt>
      <trkpt lat="44.78259" lon="0.44813">
        <ele>146.74</ele>
        <time>2012-07-14T06:27:24Z</time>
      </trkpt>
      <trkpt lat="44.783" lon="0.44714">
        <ele>148.18</ele>
        <time>2012-07-14T06:39:26Z</time>
      </trkpt>
      <trkpt lat="44.78372" lon="0.44633">
        <ele>149.14</ele>
        <time>2012-07-14T06:39:49Z</time>
      </trkpt>
      <trkpt lat="44.78463" lon="0.44651">
        <ele>146.26</ele>
        <time>2012-07-14T06:40:11Z</time>
      </trkpt>
      <trkpt lat="44.78553" lon="0.4465">
        <ele>141.93</ele>
        <time>2012-07-14T06:40:41Z</time>
      </trkpt>
      <trkpt lat="44.78639" lon="0.44604">
        <ele>139.53</ele>
        <time>2012-07-14T06:41:05Z</time>
      </trkpt>
      <trkpt lat="44.78704" lon="0.4452">
        <ele>136.64</ele>
        <time>2012-07-14T06:41:22Z</time>
      </trkpt>
      <trkpt lat="44.78762" lon="0.44468">
        <ele>134.72</ele>
        <time>2012-07-14T06:41:43Z</time>
      </trkpt>
      <trkpt lat="44.78682" lon="0.44403">
        <ele>136.64</ele>
        <time>2012-07-14T06:41:59Z</time>
      </trkpt>
      <trkpt lat="44.78601" lon="0.44335">
        <ele>138.57</ele>
        <time>2012-07-14T06:42:17Z</time>
      </trkpt>
      <trkpt lat="44.78521" lon="0.4429">
        <ele>140.49</ele>
        <time>2012-07-14T06:42:40Z</time>
      </trkpt>
      <trkpt lat="44.78433" lon="0.44266">
        <ele>144.34</ele>
        <time>2012-07-14T06:43:09Z</time>
      </trkpt>
      <trkpt lat="44.7837" lon="0.44318">
        <ele>147.22</ele>
        <time>2012-07-14T06:43:39Z</time>
      </trkpt>
      <trkpt lat="44.78278" lon="0.44285">
        <ele>141.45</ele>
        <time>2012-07-14T06:43:56Z</time>
      </trkpt>
      <trkpt lat="44.78188" lon="0.44247">
        <ele>129.92</ele>
        <time>2012-07-14T06:44:14Z</time>
      </trkpt>
      <trkpt lat="44.78096" lon="0.44253">
        <ele>118.38</ele>
        <time>2012-07-14T06:44:28Z</time>
      </trkpt>
      <trkpt lat="44.78023" lon="0.44213">
        <ele>114.53</ele>
        <time>2012-07-14T06:44:44Z</time>
      </trkpt>
      <trkpt lat="44.77985" lon="0.44096">
        <ele>113.57</ele>
        <time>2012-07-14T06:44:56Z</time>
      </trkpt>
      <trkpt lat="44.77962" lon="0.43971">
        <ele>112.13</ele>
        <time>2012-07-14T06:45:08Z</time>
      </trkpt>
      <trkpt lat="44.77942" lon="0.43846">
        <ele>113.57</ele>
        <time>2012-07-14T06:45:21Z</time>
      </trkpt>
      <trkpt lat="44.77897" lon="0.43731">
        <ele>114.05</ele>
        <time>2012-07-14T06:45:35Z</time>
      </trkpt>
      <trkpt lat="44.77857" lon="0.43613">
        <ele>114.05</ele>
        <time>2012-07-14T06:45:50Z</time>
      </trkpt>
      <trkpt lat="44.7779" lon="0.43516">
        <ele>114.05</ele>
        <time>2012-07-14T06:46:05Z</time>
      </trkpt>
      <trkpt lat="44.7771" lon="0.43461">
        <ele>111.17</ele>
        <time>2012-07-14T06:46:22Z</time>
      </trkpt>
      <trkpt lat="44.7762" lon="0.43439">
        <ele>105.4</ele>
        <time>2012-07-14T06:46:37Z</time>
      </trkpt>
      <trkpt lat="44.77559" lon="0.43375">
        <ele>101.08</ele>
        <time>2012-07-14T06:47:07Z</time>
      </trkpt>
      <trkpt lat="44.77473" lon="0.43439">
        <ele>93.87</ele>
        <time>2012-07-14T06:47:30Z</time>
      </trkpt>
      <trkpt lat="44.77379" lon="0.43458">
        <ele>94.35</ele>
        <time>2012-07-14T06:49:12Z</time>
      </trkpt>
      <trkpt lat="44.77282" lon="0.43403">
        <ele>92.42</ele>
        <time>2012-07-14T06:50:12Z</time>
      </trkpt>
      <trkpt lat="44.77206" lon="0.43281">
        <ele>91.94</ele>
        <time>2012-07-14T06:51:19Z</time>
      </trkpt>
      <trkpt lat="44.77166" lon="0.4321">
        <ele>81.85</ele>
        <time>2012-07-14T06:51:54Z</time>
      </trkpt>
      <trkpt lat="44.77082" lon="0.43143">
        <ele>76.56</ele>
        <time>2012-07-14T06:53:50Z</time>
      </trkpt>
      <trkpt lat="44.76974" lon="0.43069">
        <ele>85.69</ele>
        <time>2012-07-14T06:58:25Z</time>
      </trkpt>
      <trkpt lat="44.76977" lon="0.42976">
        <ele>69.35</ele>
        <time>2012-07-14T06:59:42Z</time>
      </trkpt>
      <trkpt lat="44.76925" lon="0.42887">
        <ele>65.03</ele>
        <time>2012-07-14T07:00:06Z</time>
      </trkpt>
      <trkpt lat="44.76848" lon="0.42959">
        <ele>67.43</ele>
        <time>2012-07-14T07:01:02Z</time>
      </trkpt>
      <trkpt lat="44.76828" lon="0.43102">
        <ele>66.47</ele>
        <time>2012-07-14T07:01:25Z</time>
      </trkpt>
      <trkpt lat="44.76781" lon="0.43232">
        <ele>67.43</ele>
        <time>2012-07-14T07:01:51Z</time>
      </trkpt>
      <trkpt lat="44.7672" lon="0.43355">
        <ele>66.95</ele>
        <time>2012-07-14T07:02:25Z</time>
      </trkpt>
      <trkpt lat="44.76667" lon="0.43482">
        <ele>69.35</ele>
        <time>2012-07-14T07:02:53Z</time>
      </trkpt>
      <trkpt lat="44.76676" lon="0.43626">
        <ele>70.79</ele>
        <time>2012-07-14T07:03:18Z</time>
      </trkpt>
      <trkpt lat="44.76671" lon="0.43765">
        <ele>75.12</ele>
        <time>2012-07-14T07:03:45Z</time>
      </trkpt>
      <trkpt lat="44.7665" lon="0.43915">
        <ele>78.97</ele>
        <time>2012-07-14T07:04:10Z</time>
      </trkpt>
      <trkpt lat="44.7663" lon="0.44053">
        <ele>76.56</ele>
        <time>2012-07-14T07:04:28Z</time>
      </trkpt>
      <trkpt lat="44.76669" lon="0.44095">
        <ele>72.72</ele>
        <time>2012-07-14T07:04:47Z</time>
      </trkpt>
      <trkpt lat="44.76707" lon="0.44114">
        <ele>71.76</ele>
        <time>2012-07-14T07:05:30Z</time>
      </trkpt>
      <trkpt lat="44.76624" lon="0.44156">
        <ele>75.12</ele>
        <time>2012-07-14T07:05:56Z</time>
      </trkpt>
      <trkpt lat="44.76568" lon="0.44229">
        <ele>75.12</ele>
        <time>2012-07-14T07:06:15Z</time>
      </trkpt>
      <trkpt lat="44.76525" lon="0.44348">
        <ele>89.54</ele>
        <time>2012-07-14T07:06:51Z</time>
      </trkpt>
      <trkpt lat="44.76505" lon="0.44499">
        <ele>91.94</ele>
        <time>2012-07-14T07:07:15Z</time>
      </trkpt>
      <trkpt lat="44.76485" lon="0.4463">
        <ele>94.35</ele>
        <time>2012-07-14T07:07:34Z</time>
      </trkpt>
      <trkpt lat="44.76477" lon="0.4476">
        <ele>92.42</ele>
        <time>2012-07-14T07:07:51Z</time>
      </trkpt>
      <trkpt lat="44.76508" lon="0.44882">
        <ele>91.94</ele>
        <time>2012-07-14T07:08:04Z</time>
      </trkpt>
      <trkpt lat="44.76514" lon="0.45013">
        <ele>91.46</ele>
        <time>2012-07-14T07:08:22Z</time>
      </trkpt>
      <trkpt lat="44.76427" lon="0.45056">
        <ele>92.42</ele>
        <time>2012-07-14T07:08:36Z</time>
      </trkpt>
      <trkpt lat="44.76339" lon="0.4505">
        <ele>94.35</ele>
        <time>2012-07-14T07:08:54Z</time>
      </trkpt>
      <trkpt lat="44.76248" lon="0.4508">
        <ele>96.27</ele>
        <time>2012-07-14T07:09:17Z</time>
      </trkpt>
      <trkpt lat="44.76165" lon="0.45015">
        <ele>95.79</ele>
        <time>2012-07-14T07:09:36Z</time>
      </trkpt>
      <trkpt lat="44.76081" lon="0.44966">
        <ele>99.15</ele>
        <time>2012-07-14T07:10:01Z</time>
      </trkpt>
      <trkpt lat="44.7601" lon="0.44887">
        <ele>103.48</ele>
        <time>2012-07-14T07:10:27Z</time>
      </trkpt>
      <trkpt lat="44.75935" lon="0.44815">
        <ele>106.36</ele>
        <time>2012-07-14T07:10:51Z</time>
      </trkpt>
      <trkpt lat="44.75853" lon="0.44789">
        <ele>109.25</ele>
        <time>2012-07-14T07:11:15Z</time>
      </trkpt>
      <trkpt lat="44.75867" lon="0.44916">
        <ele>111.17</ele>
        <time>2012-07-14T07:11:36Z</time>
      </trkpt>
      <trkpt lat="44.75844" lon="0.45036">
        <ele>110.21</ele>
        <time>2012-07-14T07:11:51Z</time>
      </trkpt>
      <trkpt lat="44.75888" lon="0.45114">
        <ele>105.88</ele>
        <time>2012-07-14T07:12:06Z</time>
      </trkpt>
      <trkpt lat="44.75976" lon="0.45179">
        <ele>100.11</ele>
        <time>2012-07-14T07:12:16Z</time>
      </trkpt>
      <trkpt lat="44.76044" lon="0.45268">
        <ele>96.27</ele>
        <time>2012-07-14T07:12:26Z</time>
      </trkpt>
      <trkpt lat="44.76099" lon="0.45374">
        <ele>92.9</ele>
        <time>2012-07-14T07:12:37Z</time>
      </trkpt>
      <trkpt lat="44.76177" lon="0.45311">
        <ele>90.98</ele>
        <time>2012-07-14T07:13:20Z</time>
      </trkpt>
      <trkpt lat="44.76288" lon="0.45267">
        <ele>91.94</ele>
        <time>2012-07-14T07:14:14Z</time>
      </trkpt>
      <trkpt lat="44.76374" lon="0.45202">
        <ele>83.29</ele>
        <time>2012-07-14T07:14:46Z</time>
      </trkpt>
      <trkpt lat="44.76472" lon="0.45167">
        <ele>78.97</ele>
        <time>2012-07-14T07:15:08Z</time>
      </trkpt>
      <trkpt lat="44.7651" lon="0.45208">
        <ele>90.98</ele>
        <time>2012-07-14T07:16:14Z</time>
      </trkpt>
      <trkpt lat="44.76565" lon="0.45358">
        <ele>84.73</ele>
        <time>2012-07-14T07:17:44Z</time>
      </trkpt>
      <trkpt lat="44.76661" lon="0.45485">
        <ele>80.89</ele>
        <time>2012-07-14T07:19:30Z</time>
      </trkpt>
      <trkpt lat="44.7675" lon="0.45561">
        <ele>81.37</ele>
        <time>2012-07-14T07:20:41Z</time>
      </trkpt>
      <trkpt lat="44.76806" lon="0.45674">
        <ele>84.73</ele>
        <time>2012-07-14T07:22:22Z</time>
      </trkpt>
      <trkpt lat="44.76716" lon="0.45797">
        <ele>85.21</ele>
        <time>2012-07-14T07:23:39Z</time>
      </trkpt>
      <trkpt lat="44.76658" lon="0.45915">
        <ele>88.1</ele>
        <time>2012-07-14T07:24:15Z</time>
      </trkpt>
      <trkpt lat="44.76579" lon="0.4599">
        <ele>94.83</ele>
        <time>2012-07-14T07:25:35Z</time>
      </trkpt>
      <trkpt lat="44.76493" lon="0.46015">
        <ele>95.31</ele>
        <time>2012-07-14T07:26:04Z</time>
      </trkpt>
      <trkpt lat="44.76412" lon="0.46038">
        <ele>96.27</ele>
        <time>2012-07-14T07:26:27Z</time>
      </trkpt>
      <trkpt lat="44.76327" lon="0.46097">
        <ele>98.19</ele>
        <time>2012-07-14T07:26:53Z</time>
      </trkpt>
      <trkpt lat="44.76256" lon="0.46171">
        <ele>99.15</ele>
        <time>2012-07-14T07:27:17Z</time>
      </trkpt>
      <trkpt lat="44.76199" lon="0.46273">
        <ele>100.6</ele>
        <time>2012-07-14T07:27:45Z</time>
      </trkpt>
      <trkpt lat="44.76137" lon="0.46366">
        <ele>100.6</ele>
        <time>2012-07-14T07:28:12Z</time>
      </trkpt>
      <trkpt lat="44.76077" lon="0.46462">
        <ele>101.08</ele>
        <time>2012-07-14T07:28:43Z</time>
      </trkpt>
      <trkpt lat="44.76022" lon="0.46565">
        <ele>101.56</ele>
        <time>2012-07-14T07:29:12Z</time>
      </trkpt>
      <trkpt lat="44.75967" lon="0.46671">
        <ele>102.04</ele>
        <time>2012-07-14T07:29:31Z</time>
      </trkpt>
      <trkpt lat="44.75896" lon="0.46683">
        <ele>103.48</ele>
        <time>2012-07-14T07:29:56Z</time>
      </trkpt>
      <trkpt lat="44.75819" lon="0.46609">
        <ele>107.81</ele>
        <time>2012-07-14T07:30:24Z</time>
      </trkpt>
      <trkpt lat="44.75746" lon="0.46531">
        <ele>115.01</ele>
        <time>2012-07-14T07:31:00Z</time>
      </trkpt>
      <trkpt lat="44.75669" lon="0.46476">
        <ele>120.3</ele>
        <time>2012-07-14T07:31:36Z</time>
      </trkpt>
      <trkpt lat="44.75608" lon="0.46392">
        <ele>124.63</ele>
        <time>2012-07-14T07:32:09Z</time>
      </trkpt>
      <trkpt lat="44.75524" lon="0.46449">
        <ele>125.11</ele>
        <time>2012-07-14T07:32:31Z</time>
      </trkpt>
      <trkpt lat="44.75451" lon="0.46527">
        <ele>123.67</ele>
        <time>2012-07-14T07:32:44Z</time>
      </trkpt>
      <trkpt lat="44.75402" lon="0.46635">
        <ele>123.67</ele>
        <time>2012-07-14T07:32:57Z</time>
      </trkpt>
      <trkpt lat="44.75346" lon="0.46737">
        <ele>121.74</ele>
        <time>2012-07-14T07:33:10Z</time>
      </trkpt>
      <trkpt lat="44.75253" lon="0.46758">
        <ele>121.74</ele>
        <time>2012-07-14T07:33:23Z</time>
      </trkpt>
      <trkpt lat="44.75161" lon="0.46784">
        <ele>121.26</ele>
        <time>2012-07-14T07:33:37Z</time>
      </trkpt>
      <trkpt lat="44.751" lon="0.4688">
        <ele>122.71</ele>
        <time>2012-07-14T07:33:52Z</time>
      </trkpt>
      <trkpt lat="44.75036" lon="0.46928">
        <ele>124.15</ele>
        <time>2012-07-14T07:34:09Z</time>
      </trkpt>
      <trkpt lat="44.74966" lon="0.4684">
        <ele>124.63</ele>
        <time>2012-07-14T07:34:25Z</time>
      </trkpt>
      <trkpt lat="44.74897" lon="0.4676">
        <ele>125.59</ele>
        <time>2012-07-14T07:34:42Z</time>
      </trkpt>
      <trkpt lat="44.74829" lon="0.4668">
        <ele>122.71</ele>
        <time>2012-07-14T07:34:58Z</time>
      </trkpt>
      <trkpt lat="44.74745" lon="0.4672">
        <ele>119.82</ele>
        <time>2012-07-14T07:35:13Z</time>
      </trkpt>
      <trkpt lat="44.74651" lon="0.46712">
        <ele>122.22</ele>
        <time>2012-07-14T07:35:29Z</time>
      </trkpt>
      <trkpt lat="44.74559" lon="0.46723">
        <ele>123.19</ele>
        <time>2012-07-14T07:35:47Z</time>
      </trkpt>
      <trkpt lat="44.74467" lon="0.46724">
        <ele>124.15</ele>
        <time>2012-07-14T07:36:07Z</time>
      </trkpt>
      <trkpt lat="44.74383" lon="0.46761">
        <ele>126.55</ele>
        <time>2012-07-14T07:36:29Z</time>
      </trkpt>
      <trkpt lat="44.74346" lon="0.46879">
        <ele>130.88</ele>
        <time>2012-07-14T07:36:55Z</time>
      </trkpt>
      <trkpt lat="44.74298" lon="0.46986">
        <ele>135.2</ele>
        <time>2012-07-14T07:37:20Z</time>
      </trkpt>
      <trkpt lat="44.74257" lon="0.471">
        <ele>140.97</ele>
        <time>2012-07-14T07:37:51Z</time>
      </trkpt>
      <trkpt lat="44.74203" lon="0.47208">
        <ele>143.85</ele>
        <time>2012-07-14T07:38:17Z</time>
      </trkpt>
      <trkpt lat="44.74161" lon="0.47322">
        <ele>149.62</ele>
        <time>2012-07-14T07:38:45Z</time>
      </trkpt>
      <trkpt lat="44.74114" lon="0.47431">
        <ele>153.95</ele>
        <time>2012-07-14T07:39:15Z</time>
      </trkpt>
      <trkpt lat="44.7404" lon="0.47428">
        <ele>153.95</ele>
        <time>2012-07-14T07:39:41Z</time>
      </trkpt>
      <trkpt lat="44.73982" lon="0.47527">
        <ele>158.27</ele>
        <time>2012-07-14T07:40:08Z</time>
      </trkpt>
      <trkpt lat="44.73945" lon="0.4765">
        <ele>157.79</ele>
        <time>2012-07-14T07:40:30Z</time>
      </trkpt>
      <trkpt lat="44.73983" lon="0.4777">
        <ele>153.47</ele>
        <time>2012-07-14T07:40:44Z</time>
      </trkpt>
      <trkpt lat="44.74008" lon="0.47869">
        <ele>150.1</ele>
        <time>2012-07-14T07:41:00Z</time>
      </trkpt>
      <trkpt lat="44.7393" lon="0.47935">
        <ele>151.54</ele>
        <time>2012-07-14T07:41:15Z</time>
      </trkpt>
      <trkpt lat="44.73869" lon="0.48">
        <ele>145.78</ele>
        <time>2012-07-14T07:41:32Z</time>
      </trkpt>
      <trkpt lat="44.73874" lon="0.48074">
        <ele>148.18</ele>
        <time>2012-07-14T07:42:58Z</time>
      </trkpt>
      <trkpt lat="44.73905" lon="0.47972">
        <ele>147.7</ele>
        <time>2012-07-14T07:43:17Z</time>
      </trkpt>
      <trkpt lat="44.73981" lon="0.47961">
        <ele>153.47</ele>
        <time>2012-07-14T07:43:45Z</time>
      </trkpt>
      <trkpt lat="44.74044" lon="0.48053">
        <ele>155.87</ele>
        <time>2012-07-14T07:44:09Z</time>
      </trkpt>
      <trkpt lat="44.74105" lon="0.48152">
        <ele>158.75</ele>
        <time>2012-07-14T07:44:35Z</time>
      </trkpt>
      <trkpt lat="44.74167" lon="0.48252">
        <ele>159.72</ele>
        <time>2012-07-14T07:45:01Z</time>
      </trkpt>
      <trkpt lat="44.74193" lon="0.48347">
        <ele>159.72</ele>
        <time>2012-07-14T07:45:25Z</time>
      </trkpt>
      <trkpt lat="44.74259" lon="0.48436">
        <ele>155.87</ele>
        <time>2012-07-14T07:45:45Z</time>
      </trkpt>
      <trkpt lat="44.74326" lon="0.48529">
        <ele>149.62</ele>
        <time>2012-07-14T07:46:00Z</time>
      </trkpt>
      <trkpt lat="44.74378" lon="0.4863">
        <ele>149.14</ele>
        <time>2012-07-14T07:46:20Z</time>
      </trkpt>
      <trkpt lat="44.74291" lon="0.48707">
        <ele>156.35</ele>
        <time>2012-07-14T07:47:01Z</time>
      </trkpt>
      <trkpt lat="44.74208" lon="0.48786">
        <ele>159.72</ele>
        <time>2012-07-14T07:47:44Z</time>
      </trkpt>
      <trkpt lat="44.74128" lon="0.48863">
        <ele>163.56</ele>
        <time>2012-07-14T07:48:15Z</time>
      </trkpt>
      <trkpt lat="44.74062" lon="0.4879">
        <ele>172.69</ele>
        <time>2012-07-14T07:49:00Z</time>
      </trkpt>
      <trkpt lat="44.74012" lon="0.48681">
        <ele>175.58</ele>
        <time>2012-07-14T07:49:30Z</time>
      </trkpt>
      <trkpt lat="44.73919" lon="0.48643">
        <ele>173.17</ele>
        <time>2012-07-14T07:49:49Z</time>
      </trkpt>
      <trkpt lat="44.73826" lon="0.48634">
        <ele>166.93</ele>
        <time>2012-07-14T07:50:02Z</time>
      </trkpt>
      <trkpt lat="44.73733" lon="0.48604">
        <ele>160.2</ele>
        <time>2012-07-14T07:50:14Z</time>
      </trkpt>
      <trkpt lat="44.73665" lon="0.4852">
        <ele>152.99</ele>
        <time>2012-07-14T07:50:24Z</time>
      </trkpt>
      <trkpt lat="44.73587" lon="0.48468">
        <ele>146.26</ele>
        <time>2012-07-14T07:50:37Z</time>
      </trkpt>
      <trkpt lat="44.73496" lon="0.48464">
        <ele>140.97</ele>
        <time>2012-07-14T07:50:48Z</time>
      </trkpt>
      <trkpt lat="44.73464" lon="0.48357">
        <ele>140.01</ele>
        <time>2012-07-14T07:51:06Z</time>
      </trkpt>
      <trkpt lat="44.73382" lon="0.48359">
        <ele>137.61</ele>
        <time>2012-07-14T07:51:22Z</time>
      </trkpt>
      <trkpt lat="44.73314" lon="0.48415">
        <ele>130.4</ele>
        <time>2012-07-14T07:51:44Z</time>
      </trkpt>
      <trkpt lat="44.73274" lon="0.48541">
        <ele>124.15</ele>
        <time>2012-07-14T07:51:56Z</time>
      </trkpt>
      <trkpt lat="44.73193" lon="0.48591">
        <ele>121.26</ele>
        <time>2012-07-14T07:52:09Z</time>
      </trkpt>
      <trkpt lat="44.73134" lon="0.48689">
        <ele>131.84</ele>
        <time>2012-07-14T07:52:29Z</time>
      </trkpt>
      <trkpt lat="44.73093" lon="0.48804">
        <ele>138.57</ele>
        <time>2012-07-14T07:53:00Z</time>
      </trkpt>
      <trkpt lat="44.73068" lon="0.48927">
        <ele>140.01</ele>
        <time>2012-07-14T07:53:28Z</time>
      </trkpt>
      <trkpt lat="44.73047" lon="0.49054">
        <ele>142.41</ele>
        <time>2012-07-14T07:53:56Z</time>
      </trkpt>
      <trkpt lat="44.73046" lon="0.49183">
        <ele>140.97</ele>
        <time>2012-07-14T07:54:20Z</time>
      </trkpt>
      <trkpt lat="44.73044" lon="0.49311">
        <ele>140.97</ele>
        <time>2012-07-14T07:54:43Z</time>
      </trkpt>
      <trkpt lat="44.73055" lon="0.49436">
        <ele>144.82</ele>
        <time>2012-07-14T07:55:09Z</time>
      </trkpt>
      <trkpt lat="44.73082" lon="0.49559">
        <ele>150.1</ele>
        <time>2012-07-14T07:55:44Z</time>
      </trkpt>
      <trkpt lat="44.72994" lon="0.49574">
        <ele>157.79</ele>
        <time>2012-07-14T07:56:20Z</time>
      </trkpt>
      <trkpt lat="44.72909" lon="0.49596">
        <ele>162.6</ele>
        <time>2012-07-14T07:56:50Z</time>
      </trkpt>
      <trkpt lat="44.72909" lon="0.49732">
        <ele>167.89</ele>
        <time>2012-07-14T07:57:23Z</time>
      </trkpt>
      <trkpt lat="44.72861" lon="0.49853">
        <ele>169.33</ele>
        <time>2012-07-14T07:57:50Z</time>
      </trkpt>
      <trkpt lat="44.72799" lon="0.49963">
        <ele>170.29</ele>
        <time>2012-07-14T07:58:11Z</time>
      </trkpt>
      <trkpt lat="44.72738" lon="0.50073">
        <ele>171.73</ele>
        <time>2012-07-14T07:58:33Z</time>
      </trkpt>
      <trkpt lat="44.72676" lon="0.50175">
        <ele>174.62</ele>
        <time>2012-07-14T07:58:57Z</time>
      </trkpt>
      <trkpt lat="44.72615" lon="0.50284">
        <ele>175.1</ele>
        <time>2012-07-14T07:59:21Z</time>
      </trkpt>
      <trkpt lat="44.72549" lon="0.50384">
        <ele>179.9</ele>
        <time>2012-07-14T07:59:51Z</time>
      </trkpt>
      <trkpt lat="44.725" lon="0.50486">
        <ele>184.71</ele>
        <time>2012-07-14T08:00:19Z</time>
      </trkpt>
      <trkpt lat="44.72561" lon="0.50565">
        <ele>181.35</ele>
        <time>2012-07-14T08:00:38Z</time>
      </trkpt>
      <trkpt lat="44.72548" lon="0.50692">
        <ele>173.66</ele>
        <time>2012-07-14T08:00:51Z</time>
      </trkpt>
      <trkpt lat="44.72588" lon="0.50814">
        <ele>169.81</ele>
        <time>2012-07-14T08:01:04Z</time>
      </trkpt>
      <trkpt lat="44.72633" lon="0.50926">
        <ele>168.37</ele>
        <time>2012-07-14T08:01:17Z</time>
      </trkpt>
      <trkpt lat="44.72699" lon="0.51017">
        <ele>169.33</ele>
        <time>2012-07-14T08:01:32Z</time>
      </trkpt>
      <trkpt lat="44.72758" lon="0.51028">
        <ele>170.29</ele>
        <time>2012-07-14T08:01:51Z</time>
      </trkpt>
      <trkpt lat="44.72786" lon="0.50902">
        <ele>165</ele>
        <time>2012-07-14T08:02:05Z</time>
      </trkpt>
      <trkpt lat="44.72873" lon="0.50841">
        <ele>156.83</ele>
        <time>2012-07-14T08:02:18Z</time>
      </trkpt>
      <trkpt lat="44.72954" lon="0.50779">
        <ele>157.31</ele>
        <time>2012-07-14T08:02:33Z</time>
      </trkpt>
      <trkpt lat="44.73023" lon="0.50688">
        <ele>154.43</ele>
        <time>2012-07-14T08:02:48Z</time>
      </trkpt>
      <trkpt lat="44.7309" lon="0.50604">
        <ele>150.1</ele>
        <time>2012-07-14T08:03:03Z</time>
      </trkpt>
      <trkpt lat="44.73157" lon="0.50513">
        <ele>146.26</ele>
        <time>2012-07-14T08:03:17Z</time>
      </trkpt>
      <trkpt lat="44.73205" lon="0.50398">
        <ele>144.82</ele>
        <time>2012-07-14T08:03:33Z</time>
      </trkpt>
      <trkpt lat="44.73253" lon="0.50303">
        <ele>142.41</ele>
        <time>2012-07-14T08:03:50Z</time>
      </trkpt>
      <trkpt lat="44.73342" lon="0.50289">
        <ele>141.93</ele>
        <time>2012-07-14T08:04:06Z</time>
      </trkpt>
      <trkpt lat="44.73429" lon="0.50264">
        <ele>142.89</ele>
        <time>2012-07-14T08:04:29Z</time>
      </trkpt>
      <trkpt lat="44.73522" lon="0.50241">
        <ele>142.89</ele>
        <time>2012-07-14T08:04:49Z</time>
      </trkpt>
      <trkpt lat="44.7361" lon="0.50198">
        <ele>144.82</ele>
        <time>2012-07-14T08:05:09Z</time>
      </trkpt>
      <trkpt lat="44.73707" lon="0.50201">
        <ele>142.89</ele>
        <time>2012-07-14T08:05:28Z</time>
      </trkpt>
      <trkpt lat="44.73799" lon="0.50214">
        <ele>140.01</ele>
        <time>2012-07-14T08:05:39Z</time>
      </trkpt>
      <trkpt lat="44.7389" lon="0.50205">
        <ele>144.34</ele>
        <time>2012-07-14T08:05:59Z</time>
      </trkpt>
      <trkpt lat="44.73984" lon="0.5019">
        <ele>150.58</ele>
        <time>2012-07-14T08:06:27Z</time>
      </trkpt>
      <trkpt lat="44.7407" lon="0.50206">
        <ele>155.87</ele>
        <time>2012-07-14T08:07:13Z</time>
      </trkpt>
      <trkpt lat="44.74136" lon="0.50127">
        <ele>164.04</ele>
        <time>2012-07-14T08:08:14Z</time>
      </trkpt>
      <trkpt lat="44.74255" lon="0.50101">
        <ele>156.83</ele>
        <time>2012-07-14T08:08:53Z</time>
      </trkpt>
      <trkpt lat="44.74361" lon="0.50088">
        <ele>152.99</ele>
        <time>2012-07-14T08:09:16Z</time>
      </trkpt>
      <trkpt lat="44.74462" lon="0.50114">
        <ele>151.06</ele>
        <time>2012-07-14T08:09:33Z</time>
      </trkpt>
      <trkpt lat="44.74552" lon="0.50069">
        <ele>147.22</ele>
        <time>2012-07-14T08:09:49Z</time>
      </trkpt>
      <trkpt lat="44.7464" lon="0.50077">
        <ele>139.05</ele>
        <time>2012-07-14T08:10:09Z</time>
      </trkpt>
      <trkpt lat="44.74735" lon="0.50083">
        <ele>137.61</ele>
        <time>2012-07-14T08:10:26Z</time>
      </trkpt>
      <trkpt lat="44.74817" lon="0.50147">
        <ele>132.32</ele>
        <time>2012-07-14T08:10:56Z</time>
      </trkpt>
      <trkpt lat="44.74911" lon="0.50162">
        <ele>131.36</ele>
        <time>2012-07-14T08:11:20Z</time>
      </trkpt>
      <trkpt lat="44.74994" lon="0.5017">
        <ele>130.4</ele>
        <time>2012-07-14T08:12:08Z</time>
      </trkpt>
      <trkpt lat="44.75085" lon="0.50167">
        <ele>134.24</ele>
        <time>2012-07-14T08:12:36Z</time>
      </trkpt>
      <trkpt lat="44.75176" lon="0.50161">
        <ele>139.53</ele>
        <time>2012-07-14T08:13:11Z</time>
      </trkpt>
      <trkpt lat="44.75254" lon="0.50215">
        <ele>146.26</ele>
        <time>2012-07-14T08:13:56Z</time>
      </trkpt>
      <trkpt lat="44.75354" lon="0.50233">
        <ele>157.31</ele>
        <time>2012-07-14T08:14:51Z</time>
      </trkpt>
      <trkpt lat="44.75437" lon="0.50232">
        <ele>161.16</ele>
        <time>2012-07-14T08:15:35Z</time>
      </trkpt>
      <trkpt lat="44.75513" lon="0.50165">
        <ele>162.12</ele>
        <time>2012-07-14T08:16:03Z</time>
      </trkpt>
      <trkpt lat="44.75599" lon="0.50126">
        <ele>161.16</ele>
        <time>2012-07-14T08:16:29Z</time>
      </trkpt>
      <trkpt lat="44.7568" lon="0.50114">
        <ele>158.27</ele>
        <time>2012-07-14T08:16:59Z</time>
      </trkpt>
      <trkpt lat="44.7577" lon="0.5012">
        <ele>157.31</ele>
        <time>2012-07-14T08:17:20Z</time>
      </trkpt>
      <trkpt lat="44.75855" lon="0.50164">
        <ele>153.95</ele>
        <time>2012-07-14T08:17:40Z</time>
      </trkpt>
      <trkpt lat="44.75946" lon="0.50162">
        <ele>153.95</ele>
        <time>2012-07-14T08:18:09Z</time>
      </trkpt>
      <trkpt lat="44.76016" lon="0.50233">
        <ele>152.03</ele>
        <time>2012-07-14T08:18:55Z</time>
      </trkpt>
      <trkpt lat="44.76053" lon="0.50331">
        <ele>144.82</ele>
        <time>2012-07-14T08:19:19Z</time>
      </trkpt>
      <trkpt lat="44.76104" lon="0.5044">
        <ele>143.37</ele>
        <time>2012-07-14T08:19:33Z</time>
      </trkpt>
      <trkpt lat="44.76075" lon="0.50538">
        <ele>140.49</ele>
        <time>2012-07-14T08:20:41Z</time>
      </trkpt>
      <trkpt lat="44.76095" lon="0.50663">
        <ele>137.13</ele>
        <time>2012-07-14T08:20:59Z</time>
      </trkpt>
      <trkpt lat="44.76105" lon="0.50785">
        <ele>131.36</ele>
        <time>2012-07-14T08:21:20Z</time>
      </trkpt>
      <trkpt lat="44.76126" lon="0.50909">
        <ele>126.55</ele>
        <time>2012-07-14T08:21:37Z</time>
      </trkpt>
      <trkpt lat="44.76096" lon="0.51028">
        <ele>123.67</ele>
        <time>2012-07-14T08:22:03Z</time>
      </trkpt>
      <trkpt lat="44.76094" lon="0.51157">
        <ele>123.19</ele>
        <time>2012-07-14T08:22:33Z</time>
      </trkpt>
      <trkpt lat="44.76078" lon="0.51285">
        <ele>126.55</ele>
        <time>2012-07-14T08:23:02Z</time>
      </trkpt>
      <trkpt lat="44.76056" lon="0.51412">
        <ele>131.84</ele>
        <time>2012-07-14T08:23:39Z</time>
      </trkpt>
      <trkpt lat="44.76022" lon="0.51536">
        <ele>139.05</ele>
        <time>2012-07-14T08:24:25Z</time>
      </trkpt>
      <trkpt lat="44.75992" lon="0.51658">
        <ele>137.13</ele>
        <time>2012-07-14T08:24:46Z</time>
      </trkpt>
      <trkpt lat="44.75928" lon="0.51735">
        <ele>137.13</ele>
        <time>2012-07-14T08:25:07Z</time>
      </trkpt>
      <trkpt lat="44.75878" lon="0.5182">
        <ele>136.16</ele>
        <time>2012-07-14T08:25:27Z</time>
      </trkpt>
      <trkpt lat="44.75907" lon="0.51944">
        <ele>136.64</ele>
        <time>2012-07-14T08:25:48Z</time>
      </trkpt>
      <trkpt lat="44.75926" lon="0.52076">
        <ele>140.01</ele>
        <time>2012-07-14T08:26:12Z</time>
      </trkpt>
      <trkpt lat="44.7596" lon="0.52184">
        <ele>144.82</ele>
        <time>2012-07-14T08:26:40Z</time>
      </trkpt>
      <trkpt lat="44.76044" lon="0.52243">
        <ele>148.66</ele>
        <time>2012-07-14T08:27:15Z</time>
      </trkpt>
      <trkpt lat="44.76118" lon="0.52272">
        <ele>144.82</ele>
        <time>2012-07-14T08:28:24Z</time>
      </trkpt>
      <trkpt lat="44.76209" lon="0.52293">
        <ele>147.22</ele>
        <time>2012-07-14T08:28:56Z</time>
      </trkpt>
      <trkpt lat="44.76289" lon="0.52233">
        <ele>149.62</ele>
        <time>2012-07-14T08:29:32Z</time>
      </trkpt>
      <trkpt lat="44.76324" lon="0.52113">
        <ele>150.58</ele>
        <time>2012-07-14T08:30:02Z</time>
      </trkpt>
      <trkpt lat="44.7635" lon="0.52003">
        <ele>151.54</ele>
        <time>2012-07-14T08:30:33Z</time>
      </trkpt>
      <trkpt lat="44.76431" lon="0.51948">
        <ele>152.03</ele>
        <time>2012-07-14T08:31:05Z</time>
      </trkpt>
      <trkpt lat="44.7649" lon="0.51842">
        <ele>153.95</ele>
        <time>2012-07-14T08:31:24Z</time>
      </trkpt>
      <trkpt lat="44.76542" lon="0.51737">
        <ele>147.22</ele>
        <time>2012-07-14T08:31:41Z</time>
      </trkpt>
      <trkpt lat="44.76549" lon="0.51641">
        <ele>142.41</ele>
        <time>2012-07-14T08:32:00Z</time>
      </trkpt>
      <trkpt lat="44.76586" lon="0.51563">
        <ele>136.16</ele>
        <time>2012-07-14T08:32:21Z</time>
      </trkpt>
      <trkpt lat="44.76667" lon="0.51499">
        <ele>131.36</ele>
        <time>2012-07-14T08:32:43Z</time>
      </trkpt>
      <trkpt lat="44.76737" lon="0.51419">
        <ele>121.26</ele>
        <time>2012-07-14T08:33:09Z</time>
      </trkpt>
      <trkpt lat="44.76791" lon="0.5132">
        <ele>120.3</ele>
        <time>2012-07-14T08:33:34Z</time>
      </trkpt>
      <trkpt lat="44.76867" lon="0.51251">
        <ele>121.74</ele>
        <time>2012-07-14T08:33:57Z</time>
      </trkpt>
      <trkpt lat="44.76939" lon="0.5117">
        <ele>124.15</ele>
        <time>2012-07-14T08:34:33Z</time>
      </trkpt>
      <trkpt lat="44.77004" lon="0.51078">
        <ele>121.74</ele>
        <time>2012-07-14T08:35:04Z</time>
      </trkpt>
      <trkpt lat="44.77052" lon="0.50969">
        <ele>123.19</ele>
        <time>2012-07-14T08:35:43Z</time>
      </trkpt>
      <trkpt lat="44.77103" lon="0.50861">
        <ele>125.11</ele>
        <time>2012-07-14T08:36:25Z</time>
      </trkpt>
      <trkpt lat="44.77156" lon="0.50879">
        <ele>126.55</ele>
        <time>2012-07-14T08:40:25Z</time>
      </trkpt>
      <trkpt lat="44.77224" lon="0.50952">
        <ele>129.43</ele>
        <time>2012-07-14T08:40:56Z</time>
      </trkpt>
      <trkpt lat="44.77262" lon="0.51033">
        <ele>132.32</ele>
        <time>2012-07-14T08:41:33Z</time>
      </trkpt>
      <trkpt lat="44.77315" lon="0.51148">
        <ele>141.45</ele>
        <time>2012-07-14T08:42:30Z</time>
      </trkpt>
      <trkpt lat="44.77358" lon="0.5128">
        <ele>156.35</ele>
        <time>2012-07-14T08:44:07Z</time>
      </trkpt>
      <trkpt lat="44.77407" lon="0.51245">
        <ele>155.87</ele>
        <time>2012-07-14T08:44:50Z</time>
      </trkpt>
      <trkpt lat="44.77417" lon="0.51117">
        <ele>156.35</ele>
        <time>2012-07-14T08:45:09Z</time>
      </trkpt>
      <trkpt lat="44.77435" lon="0.5099">
        <ele>148.66</ele>
        <time>2012-07-14T08:45:34Z</time>
      </trkpt>
      <trkpt lat="44.77429" lon="0.50859">
        <ele>133.76</ele>
        <time>2012-07-14T08:46:05Z</time>
      </trkpt>
      <trkpt lat="44.77423" lon="0.50732">
        <ele>128.95</ele>
        <time>2012-07-14T08:46:27Z</time>
      </trkpt>
      <trkpt lat="44.77475" lon="0.50643">
        <ele>130.88</ele>
        <time>2012-07-14T08:46:47Z</time>
      </trkpt>
      <trkpt lat="44.7756" lon="0.50591">
        <ele>127.51</ele>
        <time>2012-07-14T08:47:06Z</time>
      </trkpt>
      <trkpt lat="44.77643" lon="0.50536">
        <ele>124.63</ele>
        <time>2012-07-14T08:47:28Z</time>
      </trkpt>
      <trkpt lat="44.77736" lon="0.50476">
        <ele>122.71</ele>
        <time>2012-07-14T08:48:24Z</time>
      </trkpt>
      <trkpt lat="44.77807" lon="0.50381">
        <ele>114.05</ele>
        <time>2012-07-14T08:49:56Z</time>
      </trkpt>
      <trkpt lat="44.77899" lon="0.50317">
        <ele>121.26</ele>
        <time>2012-07-14T08:51:29Z</time>
      </trkpt>
      <trkpt lat="44.77984" lon="0.5037">
        <ele>126.07</ele>
        <time>2012-07-14T08:52:51Z</time>
      </trkpt>
      <trkpt lat="44.78048" lon="0.50336">
        <ele>132.32</ele>
        <time>2012-07-14T08:56:23Z</time>
      </trkpt>
      <trkpt lat="44.78133" lon="0.50381">
        <ele>134.72</ele>
        <time>2012-07-14T08:57:05Z</time>
      </trkpt>
      <trkpt lat="44.7823" lon="0.50381">
        <ele>137.13</ele>
        <time>2012-07-14T08:58:09Z</time>
      </trkpt>
      <trkpt lat="44.78325" lon="0.50339">
        <ele>140.49</ele>
        <time>2012-07-14T08:59:27Z</time>
      </trkpt>
      <trkpt lat="44.784" lon="0.50288">
        <ele>148.18</ele>
        <time>2012-07-14T09:02:53Z</time>
      </trkpt>
      <trkpt lat="44.78459" lon="0.50178">
        <ele>159.72</ele>
        <time>2012-07-14T09:05:18Z</time>
      </trkpt>
      <trkpt lat="44.78545" lon="0.50182">
        <ele>163.56</ele>
        <time>2012-07-14T09:06:11Z</time>
      </trkpt>
      <trkpt lat="44.78638" lon="0.50197">
        <ele>167.41</ele>
        <time>2012-07-14T09:06:47Z</time>
      </trkpt>
      <trkpt lat="44.7873" lon="0.50219">
        <ele>169.33</ele>
        <time>2012-07-14T09:07:20Z</time>
      </trkpt>
      <trkpt lat="44.78817" lon="0.50256">
        <ele>170.29</ele>
        <time>2012-07-14T09:07:52Z</time>
      </trkpt>
      <trkpt lat="44.78903" lon="0.50298">
        <ele>170.77</ele>
        <time>2012-07-14T09:08:16Z</time>
      </trkpt>
      <trkpt lat="44.78968" lon="0.5024">
        <ele>171.25</ele>
        <time>2012-07-14T09:08:41Z</time>
      </trkpt>
      <trkpt lat="44.78979" lon="0.50111">
        <ele>167.41</ele>
        <time>2012-07-14T09:09:00Z</time>
      </trkpt>
      <trkpt lat="44.78999" lon="0.49985">
        <ele>166.45</ele>
        <time>2012-07-14T09:09:19Z</time>
      </trkpt>
      <trkpt lat="44.7904" lon="0.4987">
        <ele>171.25</ele>
        <time>2012-07-14T09:09:52Z</time>
      </trkpt>
      <trkpt lat="44.79048" lon="0.49791">
        <ele>175.1</ele>
        <time>2012-07-14T09:13:23Z</time>
      </trkpt>
      <trkpt lat="44.79092" lon="0.49674">
        <ele>175.58</ele>
        <time>2012-07-14T09:13:48Z</time>
      </trkpt>
      <trkpt lat="44.79155" lon="0.49577">
        <ele>175.1</ele>
        <time>2012-07-14T09:14:05Z</time>
      </trkpt>
      <trkpt lat="44.7915" lon="0.49471">
        <ele>173.17</ele>
        <time>2012-07-14T09:14:28Z</time>
      </trkpt>
      <trkpt lat="44.79186" lon="0.49435">
        <ele>173.66</ele>
        <time>2012-07-14T09:16:10Z</time>
      </trkpt>
      <trkpt lat="44.7926" lon="0.49352">
        <ele>170.77</ele>
        <time>2012-07-14T09:16:27Z</time>
      </trkpt>
      <trkpt lat="44.79334" lon="0.49262">
        <ele>169.81</ele>
        <time>2012-07-14T09:16:43Z</time>
      </trkpt>
      <trkpt lat="44.79369" lon="0.49155">
        <ele>165</ele>
        <time>2012-07-14T09:17:00Z</time>
      </trkpt>
      <trkpt lat="44.79354" lon="0.49053">
        <ele>163.08</ele>
        <time>2012-07-14T09:17:18Z</time>
      </trkpt>
      <trkpt lat="44.79312" lon="0.48934">
        <ele>163.08</ele>
        <time>2012-07-14T09:17:31Z</time>
      </trkpt>
      <trkpt lat="44.79266" lon="0.48823">
        <ele>162.6</ele>
        <time>2012-07-14T09:17:46Z</time>
      </trkpt>
      <trkpt lat="44.79203" lon="0.48731">
        <ele>161.16</ele>
        <time>2012-07-14T09:18:01Z</time>
      </trkpt>
      <trkpt lat="44.79252" lon="0.48616">
        <ele>157.31</ele>
        <time>2012-07-14T09:18:14Z</time>
      </trkpt>
      <trkpt lat="44.79291" lon="0.48499">
        <ele>154.91</ele>
        <time>2012-07-14T09:18:27Z</time>
      </trkpt>
      <trkpt lat="44.79331" lon="0.48375">
        <ele>152.51</ele>
        <time>2012-07-14T09:18:41Z</time>
      </trkpt>
      <trkpt lat="44.7934" lon="0.48245">
        <ele>151.54</ele>
        <time>2012-07-14T09:18:56Z</time>
      </trkpt>
      <trkpt lat="44.79363" lon="0.48123">
        <ele>151.54</ele>
        <time>2012-07-14T09:19:12Z</time>
      </trkpt>
      <trkpt lat="44.79371" lon="0.47992">
        <ele>152.03</ele>
        <time>2012-07-14T09:19:30Z</time>
      </trkpt>
      <trkpt lat="44.79384" lon="0.47862">
        <ele>152.99</ele>
        <time>2012-07-14T09:19:50Z</time>
      </trkpt>
      <trkpt lat="44.79393" lon="0.47732">
        <ele>156.35</ele>
        <time>2012-07-14T09:20:13Z</time>
      </trkpt>
      <trkpt lat="44.79402" lon="0.47603">
        <ele>159.24</ele>
        <time>2012-07-14T09:20:38Z</time>
      </trkpt>
      <trkpt lat="44.79437" lon="0.47484">
        <ele>160.2</ele>
        <time>2012-07-14T09:21:04Z</time>
      </trkpt>
      <trkpt lat="44.79478" lon="0.47367">
        <ele>158.27</ele>
        <time>2012-07-14T09:21:20Z</time>
      </trkpt>
      <trkpt lat="44.79518" lon="0.47248">
        <ele>157.31</ele>
        <time>2012-07-14T09:21:34Z</time>
      </trkpt>
      <trkpt lat="44.79552" lon="0.47126">
        <ele>156.83</ele>
        <time>2012-07-14T09:21:49Z</time>
      </trkpt>
      <trkpt lat="44.79555" lon="0.46999">
        <ele>158.27</ele>
        <time>2012-07-14T09:22:05Z</time>
      </trkpt>
      <trkpt lat="44.79528" lon="0.46877">
        <ele>161.64</ele>
        <time>2012-07-14T09:22:26Z</time>
      </trkpt>
      <trkpt lat="44.79518" lon="0.46752">
        <ele>164.52</ele>
        <time>2012-07-14T09:22:49Z</time>
      </trkpt>
      <trkpt lat="44.7949" lon="0.46633">
        <ele>168.37</ele>
        <time>2012-07-14T09:23:14Z</time>
      </trkpt>
      <trkpt lat="44.79405" lon="0.46579">
        <ele>166.93</ele>
        <time>2012-07-14T09:23:45Z</time>
      </trkpt>
      <trkpt lat="44.79347" lon="0.46478">
        <ele>164.52</ele>
        <time>2012-07-14T09:24:00Z</time>
      </trkpt>
      <trkpt lat="44.79266" lon="0.46421">
        <ele>163.08</ele>
        <time>2012-07-14T09:24:13Z</time>
      </trkpt>
      <trkpt lat="44.79177" lon="0.46373">
        <ele>160.2</ele>
        <time>2012-07-14T09:24:25Z</time>
      </trkpt>
      <trkpt lat="44.79092" lon="0.46326">
        <ele>157.31</ele>
        <time>2012-07-14T09:24:36Z</time>
      </trkpt>
      <trkpt lat="44.79" lon="0.46331">
        <ele>154.43</ele>
        <time>2012-07-14T09:24:48Z</time>
      </trkpt>
      <trkpt lat="44.78921" lon="0.46403">
        <ele>152.99</ele>
        <time>2012-07-14T09:24:59Z</time>
      </trkpt>
      <trkpt lat="44.78839" lon="0.46471">
        <ele>152.51</ele>
        <time>2012-07-14T09:25:11Z</time>
      </trkpt>
      <trkpt lat="44.78752" lon="0.46504">
        <ele>149.62</ele>
        <time>2012-07-14T09:25:24Z</time>
      </trkpt>
      <trkpt lat="44.78753" lon="0.46376">
        <ele>151.06</ele>
        <time>2012-07-14T09:25:40Z</time>
      </trkpt>
      <trkpt lat="44.78734" lon="0.46251">
        <ele>153.95</ele>
        <time>2012-07-14T09:26:02Z</time>
      </trkpt>
      <trkpt lat="44.78687" lon="0.46138">
        <ele>154.91</ele>
        <time>2012-07-14T09:26:24Z</time>
      </trkpt>
      <trkpt lat="44.786" lon="0.46096">
        <ele>153.95</ele>
        <time>2012-07-14T09:26:40Z</time>
      </trkpt>
      <trkpt lat="44.78511" lon="0.46069">
        <ele>150.58</ele>
        <time>2012-07-14T09:26:56Z</time>
      </trkpt>
      <trkpt lat="44.78419" lon="0.46065">
        <ele>146.26</ele>
        <time>2012-07-14T09:27:10Z</time>
      </trkpt>
      <trkpt lat="44.78337" lon="0.46007">
        <ele>141.45</ele>
        <time>2012-07-14T09:27:23Z</time>
      </trkpt>
      <trkpt lat="44.78263" lon="0.45923">
        <ele>133.76</ele>
        <time>2012-07-14T09:27:37Z</time>
      </trkpt>
      <trkpt lat="44.78197" lon="0.45872">
        <ele>126.55</ele>
        <time>2012-07-14T09:27:50Z</time>
      </trkpt>
      <trkpt lat="44.78287" lon="0.45845">
        <ele>124.15</ele>
        <time>2012-07-14T09:28:02Z</time>
      </trkpt>
      <trkpt lat="44.78361" lon="0.4577">
        <ele>118.86</ele>
        <time>2012-07-14T09:28:13Z</time>
      </trkpt>
      <trkpt lat="44.78318" lon="0.45658">
        <ele>113.09</ele>
        <time>2012-07-14T09:28:24Z</time>
      </trkpt>
      <trkpt lat="44.78283" lon="0.45537">
        <ele>113.09</ele>
        <time>2012-07-14T09:28:37Z</time>
      </trkpt>
      <trkpt lat="44.78216" lon="0.45455">
        <ele>115.5</ele>
        <time>2012-07-14T09:28:56Z</time>
      </trkpt>
      <trkpt lat="44.78181" lon="0.45339">
        <ele>118.38</ele>
        <time>2012-07-14T09:29:19Z</time>
      </trkpt>
      <trkpt lat="44.7818" lon="0.45211">
        <ele>125.59</ele>
        <time>2012-07-14T09:29:54Z</time>
      </trkpt>
      <trkpt lat="44.7814" lon="0.45091">
        <ele>134.72</ele>
        <time>2012-07-14T09:30:41Z</time>
      </trkpt>
      <trkpt lat="44.78178" lon="0.45069">
        <ele>141.93</ele>
        <time>2012-07-14T09:31:25Z</time>
      </trkpt>
      <trkpt lat="44.78259" lon="0.45083">
        <ele>143.85</ele>
        <time>2012-07-14T09:31:57Z</time>
      </trkpt>
      <trkpt lat="44.78289" lon="0.4496">
        <ele>149.14</ele>
        <time>2012-07-14T09:32:34Z</time>
      </trkpt>
      <trkpt lat="44.78326" lon="0.44839">
        <ele>150.58</ele>
        <time>2012-07-14T09:33:02Z</time>
      </trkpt>
      <trkpt lat="44.78374" lon="0.448">
        <ele>152.03</ele>
        <time>2012-07-14T09:37:51Z</time>
      </trkpt>
      <trkpt lat="44.78418" lon="0.44734">
        <ele>150.58</ele>
        <time>2012-07-14T09:39:35Z</time>
      </trkpt>
      <trkpt lat="44.78416" lon="0.44733">
        <ele>149.62</ele>
        <time>2012-07-14T09:42:05Z</time>
      </trkpt>
      <trkpt lat="44.78416" lon="0.44734">
        <ele>150.1</ele>
        <time>2012-07-14T09:43:05Z</time>
      </trkpt>
    </trkseg>
  </trk>
</gpx>